createdAt,value
2018-12-18T00:09:42.293Z,98258.35
2018-12-18T00:20:01.965Z,98260.53
2018-12-18T00:30:20.825Z,98264.31
2018-12-18T00:40:39.766Z,98270.09
2018-12-18T00:50:59.166Z,98275.50
2018-12-18T01:01:17.859Z,98290.23
2018-12-18T01:11:36.830Z,98291.32
2018-12-18T01:21:56.793Z,98308.63
2018-12-18T01:32:14.400Z,98317.94
2018-12-18T01:42:33.997Z,98308.55
2018-12-18T01:52:52.942Z,98293.09
2018-12-18T02:03:11.597Z,98298.78
2018-12-18T02:13:31.687Z,98291.02
2018-12-18T02:23:50.680Z,98303.02
2018-12-18T02:34:13.760Z,98304.53
2018-12-18T02:44:28.417Z,98325.28
2018-12-18T02:54:46.709Z,98336.36
2018-12-18T03:05:06.028Z,98342.20
2018-12-18T03:15:25.961Z,98355.86
2018-12-18T03:25:44.791Z,98342.42
2018-12-18T03:36:03.788Z,98334.83
2018-12-18T03:46:22.415Z,98318.03
2018-12-18T03:56:41.709Z,98313.31
2018-12-18T04:07:00.584Z,98316.25
2018-12-18T04:17:19.680Z,98322.72
2018-12-18T04:27:38.915Z,98313.27
2018-12-18T04:37:57.192Z,98315.01
2018-12-18T04:48:16.679Z,98324.87
2018-12-18T04:58:35.216Z,98318.44
2018-12-18T05:08:56.252Z,98321.77
2018-12-18T05:19:14.994Z,98334.38
2018-12-18T05:29:36.238Z,98326.81
2018-12-18T05:39:54.516Z,98321.71
2018-12-18T05:50:14.009Z,98341.05
2018-12-18T06:00:33.810Z,98351.34
2018-12-18T06:10:51.863Z,98356.46
2018-12-18T06:21:10.558Z,98353.09
2018-12-18T06:31:29.171Z,98351.73
2018-12-18T06:41:49.214Z,98359.31
2018-12-18T06:52:08.793Z,98369.34
2018-12-18T07:02:27.163Z,98377.63
2018-12-18T07:12:45.891Z,98378.65
2018-12-18T07:23:04.939Z,98390.48
2018-12-18T07:33:23.774Z,98391.38
2018-12-18T07:43:42.889Z,98386.48
2018-12-18T07:54:01.453Z,98394.50
2018-12-18T08:04:21.137Z,98390.00
2018-12-18T08:14:38.149Z,98401.77
2018-12-18T08:24:56.752Z,98400.44
2018-12-18T08:35:17.330Z,98405.73
2018-12-18T08:45:35.898Z,98401.20
2018-12-18T08:55:56.122Z,98409.58
2018-12-18T09:06:15.515Z,98405.05
2018-12-18T09:16:52.810Z,98420.55
2018-12-18T09:27:12.519Z,98424.03
2018-12-18T09:37:32.157Z,98404.83
2018-12-18T09:47:51.240Z,98392.99
2018-12-18T09:58:12.878Z,98380.52
2018-12-18T10:08:31.982Z,98362.91
2018-12-18T10:18:50.812Z,98355.77
2018-12-18T10:29:10.018Z,98341.05
2018-12-18T10:39:35.870Z,98321.00
2018-12-18T10:49:55.870Z,98317.66
2018-12-18T11:00:34.559Z,98304.31
2018-12-18T11:10:54.422Z,98289.16
2018-12-18T11:21:14.055Z,98278.72
2018-12-18T11:31:34.409Z,98267.73
2018-12-18T11:41:53.279Z,98254.70
2018-12-18T11:52:11.461Z,98234.57
2018-12-18T12:02:30.873Z,98227.47
2018-12-18T12:12:49.798Z,98223.25
2018-12-18T12:23:09.406Z,98214.52
2018-12-18T12:33:28.046Z,98213.45
2018-12-18T12:43:47.205Z,98215.58
2018-12-18T12:54:06.167Z,98221.24
2018-12-18T13:04:25.286Z,98209.87
2018-12-18T13:14:43.792Z,98203.13
2018-12-18T13:25:02.652Z,98213.33
2018-12-18T13:35:22.506Z,98203.77
2018-12-18T13:45:41.449Z,98191.70
2018-12-18T13:55:59.910Z,98176.25
2018-12-18T14:06:18.629Z,98169.53
2018-12-18T14:16:37.266Z,98174.30
2018-12-18T14:26:55.785Z,98156.59
2018-12-18T14:37:14.737Z,98134.94
2018-12-18T14:47:32.987Z,98112.18
2018-12-18T14:57:52.880Z,98108.19
2018-12-18T15:08:12.792Z,98109.50
2018-12-18T15:18:32.302Z,98119.24
2018-12-18T15:28:50.712Z,98117.33
2018-12-18T15:39:09.445Z,98120.34
2018-12-18T15:49:29.194Z,98127.28
2018-12-18T15:59:48.680Z,98123.72
2018-12-18T16:10:07.950Z,98121.07
2018-12-18T16:20:27.478Z,98119.95
2018-12-18T16:30:47.444Z,98106.56
2018-12-18T16:41:06.497Z,98099.05
2018-12-18T16:51:25.250Z,98083.62
2018-12-18T17:01:45.606Z,98086.38
2018-12-18T17:12:04.733Z,98090.78
2018-12-18T17:22:25.234Z,98090.19
2018-12-18T17:32:44.999Z,98081.06
2018-12-18T17:43:05.869Z,98102.13
2018-12-18T17:53:26.339Z,98103.23
2018-12-18T18:03:49.895Z,98095.92
2018-12-18T18:14:10.005Z,98083.23
2018-12-18T18:36:06.644Z,98075.78
2018-12-18T18:57:45.141Z,98078.07
2018-12-18T19:08:09.213Z,98064.74
2018-12-18T19:18:31.268Z,98053.51
2018-12-18T19:28:50.546Z,98050.64
2018-12-18T19:39:15.622Z,98043.67
2018-12-18T19:49:35.599Z,98030.80
2018-12-18T19:59:54.881Z,98021.46
2018-12-18T20:10:14.902Z,98017.00
2018-12-18T20:32:40.913Z,98018.87
2018-12-18T20:42:59.394Z,98016.89
2018-12-18T20:53:19.074Z,98007.77
2018-12-18T21:03:38.939Z,97995.22
2018-12-18T21:13:58.474Z,97994.57
2018-12-18T21:24:17.795Z,97978.12
2018-12-18T21:34:37.281Z,97972.37
2018-12-18T21:44:57.170Z,97975.00
2018-12-18T21:55:15.824Z,97951.22
2018-12-18T22:05:34.691Z,97955.85
2018-12-18T22:15:53.869Z,97937.34
2018-12-18T22:26:14.245Z,97921.95
2018-12-18T22:36:33.232Z,97912.45
2018-12-18T22:46:51.495Z,97910.59
2018-12-18T22:57:10.907Z,97896.83
2018-12-18T23:07:29.564Z,97892.50
2018-12-18T23:17:48.761Z,97880.25
2018-12-18T23:28:07.340Z,97863.05
2018-12-18T23:38:27.014Z,97844.55
2018-12-18T23:48:46.852Z,97818.39
2018-12-18T23:59:07.341Z,97792.34
